createdAt,value
2023-01-22T00:01:21.706Z,81.11
2023-01-22T00:03:55.132Z,80.65
2023-01-22T00:06:27.264Z,80.68
2023-01-22T00:09:04.184Z,80.81
2023-01-22T00:11:36.372Z,80.72
2023-01-22T00:14:43.653Z,80.78
2023-01-22T00:17:18.591Z,82.16
2023-01-22T00:19:51.125Z,80.73
2023-01-22T00:22:23.149Z,80.89
2023-01-22T00:24:55.403Z,79.47
2023-01-22T00:27:27.564Z,79.30
2023-01-22T00:30:00.502Z,79.97
2023-01-22T00:32:35.664Z,80.27
2023-01-22T00:35:09.179Z,80.66
2023-01-22T00:37:41.706Z,79.85
2023-01-22T00:40:16.158Z,81.29
2023-01-22T00:42:48.833Z,81.04
2023-01-22T00:45:21.663Z,78.65
2023-01-22T00:47:56.703Z,80.37
2023-01-22T00:50:29.304Z,81.66
2023-01-22T00:53:04.267Z,80.53
2023-01-22T00:55:37.063Z,80.37
2023-01-22T00:58:09.508Z,80.29
2023-01-22T01:00:42.295Z,81.44
2023-01-22T01:03:31.484Z,81.16
2023-01-22T01:06:06.187Z,80.29
2023-01-22T01:08:42.758Z,81.36
2023-01-22T01:11:17.866Z,81.12
2023-01-22T01:13:49.884Z,80.73
2023-01-22T01:17:02.725Z,79.15
2023-01-22T01:19:37.962Z,79.51
2023-01-22T01:22:10.362Z,80.19
2023-01-22T01:24:42.532Z,80.68
2023-01-22T01:27:14.885Z,81.78
2023-01-22T01:29:46.845Z,80.23
2023-01-22T01:32:19.025Z,80.58
2023-01-22T01:34:54.044Z,81.10
2023-01-22T01:37:26.733Z,79.88
2023-01-22T01:39:58.606Z,80.72
2023-01-22T01:42:36.414Z,80.54
2023-01-22T01:45:24.240Z,80.63
2023-01-22T01:48:01.799Z,80.26
2023-01-22T01:50:38.106Z,80.54
2023-01-22T01:53:11.565Z,79.30
2023-01-22T01:55:44.047Z,79.98
2023-01-22T01:58:21.967Z,80.27
2023-01-22T02:00:57.447Z,80.47
2023-01-22T02:03:32.270Z,79.74
2023-01-22T02:06:07.465Z,79.85
2023-01-22T02:08:39.690Z,79.95
2023-01-22T02:11:13.164Z,79.34
2023-01-22T02:13:51.452Z,80.40
2023-01-22T02:16:23.612Z,80.47
2023-01-22T02:18:56.167Z,80.64
2023-01-22T02:21:35.989Z,79.83
2023-01-22T02:24:12.144Z,80.16
2023-01-22T02:26:46.065Z,80.15
2023-01-22T02:29:18.410Z,80.55
2023-01-22T02:31:50.503Z,80.82
2023-01-22T02:34:24.894Z,80.49
2023-01-22T02:36:59.786Z,79.52
2023-01-22T02:39:32.427Z,79.78
2023-01-22T02:42:04.869Z,80.72
2023-01-22T02:44:37.628Z,80.21
2023-01-22T02:47:09.803Z,79.65
2023-01-22T02:49:42.252Z,79.85
2023-01-22T02:52:17.086Z,80.70
2023-01-22T02:54:49.307Z,81.25
2023-01-22T02:57:21.706Z,81.35
2023-01-22T02:59:54.065Z,80.54
2023-01-22T03:02:26.407Z,80.27
2023-01-22T03:05:03.887Z,80.61
2023-01-22T03:07:45.461Z,80.55
2023-01-22T03:10:20.715Z,80.34
2023-01-22T03:13:04.868Z,80.05
2023-01-22T03:15:49.627Z,79.98
2023-01-22T03:18:33.779Z,80.31
2023-01-22T03:21:22.950Z,80.11
2023-01-22T03:23:59.047Z,78.45
2023-01-22T03:26:32.244Z,78.71
2023-01-22T03:29:04.376Z,78.61
2023-01-22T03:31:36.882Z,79.34
2023-01-22T03:34:08.942Z,79.08
2023-01-22T03:36:41.371Z,78.95
2023-01-22T03:39:16.726Z,78.78
2023-01-22T03:41:48.826Z,79.47
2023-01-22T03:44:20.906Z,78.68
2023-01-22T03:46:53.149Z,78.97
2023-01-22T03:49:25.045Z,80.32
2023-01-22T03:51:57.406Z,80.30
2023-01-22T03:54:32.123Z,79.99
2023-01-22T03:57:04.230Z,79.31
2023-01-22T03:59:36.587Z,78.31
2023-01-22T04:02:08.855Z,77.86
2023-01-22T04:04:40.961Z,79.52
2023-01-22T04:07:13.209Z,78.54
2023-01-22T04:09:47.845Z,79.34
2023-01-22T04:12:20.112Z,79.07
2023-01-22T04:14:52.350Z,79.53
2023-01-22T04:17:26.635Z,78.83
2023-01-22T04:19:58.843Z,78.74
2023-01-22T04:22:31.024Z,78.15
2023-01-22T04:25:06.031Z,79.57
2023-01-22T04:27:39.155Z,78.01
2023-01-22T04:30:12.040Z,77.62
2023-01-22T04:32:44.436Z,78.37
2023-01-22T04:35:16.290Z,78.34
2023-01-22T04:37:48.401Z,78.68
2023-01-22T04:40:23.520Z,78.61
2023-01-22T04:42:55.854Z,79.85
2023-01-22T04:45:27.688Z,78.31
2023-01-22T04:48:01.351Z,78.11
2023-01-22T04:50:35.801Z,79.07
2023-01-22T04:53:08.258Z,77.91
2023-01-22T04:55:43.132Z,78.14
2023-01-22T04:58:15.340Z,78.37
2023-01-22T05:00:47.268Z,78.64
2023-01-22T05:03:19.228Z,78.76
2023-01-22T05:05:51.509Z,79.62
2023-01-22T05:08:23.973Z,79.15
2023-01-22T05:10:58.819Z,78.55
2023-01-22T05:13:31.472Z,78.78
2023-01-22T05:16:03.731Z,79.95
2023-01-22T05:18:36.246Z,79.20
2023-01-22T05:21:08.900Z,78.47
2023-01-22T05:23:41.431Z,78.86
2023-01-22T05:26:16.193Z,79.76
2023-01-22T05:28:48.388Z,79.06
2023-01-22T05:31:20.354Z,78.84
2023-01-22T05:33:52.556Z,79.55
2023-01-22T05:36:24.630Z,78.38
2023-01-22T05:38:57.067Z,77.78
2023-01-22T05:41:31.664Z,77.83
2023-01-22T05:44:05.252Z,77.93
2023-01-22T05:46:37.297Z,79.46
2023-01-22T05:49:10.076Z,80.01
2023-01-22T05:51:42.134Z,78.17
2023-01-22T05:54:16.026Z,79.66
2023-01-22T05:56:50.603Z,80.32
2023-01-22T05:59:22.951Z,80.76
2023-01-22T06:01:54.802Z,79.81
2023-01-22T06:04:27.109Z,78.89
2023-01-22T06:06:59.315Z,78.55
2023-01-22T06:09:31.904Z,79.05
2023-01-22T06:12:06.663Z,79.56
2023-01-22T06:14:38.746Z,78.67
2023-01-22T06:17:10.567Z,78.70
2023-01-22T06:19:42.808Z,79.25
2023-01-22T06:22:14.729Z,79.50
2023-01-22T06:24:46.992Z,78.01
2023-01-22T06:27:22.244Z,77.99
2023-01-22T06:29:54.362Z,79.28
2023-01-22T06:32:26.355Z,79.81
2023-01-22T06:34:58.334Z,78.75
2023-01-22T06:37:30.170Z,78.53
2023-01-22T06:40:02.427Z,78.52
2023-01-22T06:42:39.640Z,79.19
2023-01-22T06:45:12.898Z,78.39
2023-01-22T06:47:47.662Z,78.46
2023-01-22T06:50:20.486Z,77.83
2023-01-22T06:52:52.428Z,79.77
2023-01-22T06:55:24.439Z,79.28
2023-01-22T06:58:01.315Z,78.63
2023-01-22T07:00:33.400Z,78.40
2023-01-22T07:03:10.365Z,77.30
2023-01-22T07:05:42.666Z,78.32
2023-01-22T07:08:17.892Z,78.45
2023-01-22T07:10:49.951Z,77.91
2023-01-22T07:13:24.837Z,78.91
2023-01-22T07:15:57.044Z,78.15
2023-01-22T07:18:29.102Z,77.21
2023-01-22T07:21:04.241Z,77.64
2023-01-22T07:23:36.384Z,78.23
2023-01-22T07:26:15.815Z,77.75
2023-01-22T07:28:50.692Z,78.34
2023-01-22T07:34:11.490Z,79.75
2023-01-22T07:36:43.992Z,79.24
2023-01-22T07:39:16.463Z,80.53
2023-01-22T07:41:48.674Z,81.22
2023-01-22T07:44:23.503Z,79.39
2023-01-22T07:46:56.077Z,79.77
2023-01-22T07:49:28.966Z,78.99
2023-01-22T07:52:01.666Z,78.41
2023-01-22T07:54:36.808Z,78.04
2023-01-22T07:57:11.688Z,77.89
2023-01-22T07:59:46.526Z,77.56
2023-01-22T08:02:19.215Z,77.06
2023-01-22T08:04:51.543Z,76.79
2023-01-22T08:07:24.557Z,77.42
2023-01-22T08:09:57.472Z,75.95
2023-01-22T08:12:29.614Z,75.82
2023-01-22T08:15:04.281Z,76.47
2023-01-22T08:17:36.171Z,76.28
2023-01-22T08:20:09.594Z,76.87
2023-01-22T08:22:41.800Z,75.87
2023-01-22T08:25:14.093Z,76.59
2023-01-22T08:27:46.797Z,76.40
2023-01-22T08:30:21.789Z,76.10
2023-01-22T08:32:53.961Z,76.96
2023-01-22T08:35:25.807Z,77.48
2023-01-22T08:37:58.105Z,77.70
2023-01-22T08:40:30.270Z,78.53
2023-01-22T08:43:02.646Z,78.16
2023-01-22T08:45:37.661Z,77.45
2023-01-22T08:48:09.989Z,78.09
2023-01-22T08:50:41.864Z,76.92
2023-01-22T08:53:14.017Z,76.59
2023-01-22T08:55:51.602Z,76.42
2023-01-22T08:58:25.731Z,74.99
2023-01-22T09:01:00.481Z,77.61
2023-01-22T09:03:33.071Z,77.76
2023-01-22T09:06:05.040Z,76.99
2023-01-22T09:08:37.397Z,78.59
2023-01-22T09:11:09.915Z,79.05
2023-01-22T09:13:42.604Z,77.97
2023-01-22T09:16:17.091Z,79.77
2023-01-22T09:18:48.933Z,79.25
2023-01-22T09:21:21.034Z,79.73
2023-01-22T09:23:54.063Z,79.63
2023-01-22T09:26:26.090Z,77.95
2023-01-22T09:28:58.361Z,78.05
2023-01-22T09:31:32.813Z,77.74
2023-01-22T09:34:05.297Z,76.28
2023-01-22T09:36:37.313Z,76.85
2023-01-22T09:39:09.643Z,75.67
2023-01-22T09:41:44.610Z,76.99
2023-01-22T09:44:21.900Z,76.89
2023-01-22T09:47:00.616Z,76.94
2023-01-22T09:49:37.056Z,77.75
2023-01-22T09:52:09.822Z,77.60
2023-01-22T09:54:44.052Z,79.05
2023-01-22T09:57:30.738Z,78.54
2023-01-22T10:00:04.399Z,78.59
2023-01-22T10:02:45.177Z,79.96
2023-01-22T10:05:26.377Z,80.59
2023-01-22T10:08:06.041Z,78.80
2023-01-22T10:10:41.329Z,77.44
2023-01-22T10:13:21.952Z,78.27
2023-01-22T10:15:57.310Z,77.78
2023-01-22T10:18:38.269Z,77.07
2023-01-22T10:21:19.174Z,78.07
2023-01-22T10:23:52.353Z,76.69
2023-01-22T10:26:36.321Z,76.17
2023-01-22T10:29:11.301Z,77.00
2023-01-22T10:31:50.564Z,78.32
2023-01-22T10:34:31.376Z,77.53
2023-01-22T10:37:06.268Z,77.97
2023-01-22T10:39:44.189Z,78.10
2023-01-22T10:42:21.102Z,78.00
2023-01-22T10:44:54.028Z,77.42
2023-01-22T10:47:28.847Z,77.33
2023-01-22T10:50:17.915Z,76.91
2023-01-22T10:52:55.108Z,78.76
2023-01-22T10:55:31.120Z,78.93
2023-01-22T10:58:06.087Z,79.04
2023-01-22T11:01:17.015Z,77.92
2023-01-22T11:03:50.588Z,77.51
2023-01-22T11:06:30.280Z,76.63
2023-01-22T11:09:07.977Z,76.80
2023-01-22T11:11:45.123Z,75.80
2023-01-22T11:14:24.952Z,75.20
2023-01-22T11:17:06.899Z,74.79
2023-01-22T11:19:46.167Z,76.27
2023-01-22T11:22:29.099Z,75.36
2023-01-22T11:25:01.520Z,75.48
2023-01-22T11:28:12.840Z,74.37
2023-01-22T11:31:07.701Z,74.21
2023-01-22T11:34:09.649Z,74.35
2023-01-22T11:36:48.628Z,75.29
2023-01-22T11:39:37.176Z,75.52
2023-01-22T11:42:23.779Z,75.96
2023-01-22T11:45:08.774Z,76.28
2023-01-22T11:48:04.370Z,76.17
2023-01-22T11:50:44.599Z,75.61
2023-01-22T11:53:35.027Z,74.84
2023-01-22T11:56:33.345Z,75.07
2023-01-22T11:59:12.149Z,75.09
2023-01-22T12:02:05.848Z,74.62
2023-01-22T12:05:09.149Z,74.72
2023-01-22T12:08:02.500Z,74.42
2023-01-22T12:10:55.095Z,73.90
2023-01-22T12:13:51.487Z,74.12
2023-01-22T12:16:30.628Z,75.17
2023-01-22T12:19:27.111Z,75.54
2023-01-22T12:22:07.407Z,77.36
2023-01-22T12:24:45.993Z,76.33
2023-01-22T12:27:23.400Z,75.13
2023-01-22T12:30:05.960Z,75.02
2023-01-22T12:32:41.303Z,75.52
2023-01-22T12:35:19.742Z,75.88
2023-01-22T12:38:00.707Z,76.22
2023-01-22T12:41:07.083Z,76.25
2023-01-22T12:43:47.138Z,76.63
2023-01-22T12:46:30.012Z,76.20
2023-01-22T12:49:08.805Z,77.20
2023-01-22T12:51:43.419Z,77.79
2023-01-22T12:54:24.994Z,77.86
2023-01-22T12:57:00.010Z,78.41
2023-01-22T12:59:49.012Z,78.18
2023-01-22T13:02:39.684Z,77.75
2023-01-22T13:05:39.004Z,76.82
2023-01-22T13:08:38.174Z,77.76
2023-01-22T13:11:20.985Z,77.61
2023-01-22T13:14:14.846Z,78.27
2023-01-22T13:16:56.853Z,77.04
2023-01-22T13:19:55.641Z,77.26
2023-01-22T13:22:31.125Z,78.30
2023-01-22T13:25:03.344Z,78.56
2023-01-22T13:27:39.386Z,79.62
2023-01-22T13:30:23.210Z,79.96
2023-01-22T13:33:27.348Z,78.29
2023-01-22T13:36:14.851Z,77.67
2023-01-22T13:38:55.331Z,77.67
2023-01-22T13:41:34.218Z,78.80
2023-01-22T13:44:10.906Z,79.32
2023-01-22T13:46:44.608Z,80.65
2023-01-22T13:49:25.533Z,81.61
2023-01-22T13:52:06.012Z,79.15
2023-01-22T13:54:45.243Z,80.57
2023-01-22T13:57:23.897Z,79.83
2023-01-22T13:59:58.224Z,79.27
2023-01-22T14:02:36.692Z,80.25
2023-01-22T14:05:22.106Z,78.43
2023-01-22T14:08:08.651Z,78.44
2023-01-22T14:10:42.403Z,78.36
2023-01-22T14:13:16.629Z,79.19
2023-01-22T14:15:59.818Z,79.86
2023-01-22T14:18:32.203Z,79.96
2023-01-22T14:21:05.163Z,78.18
2023-01-22T14:23:43.317Z,78.03
2023-01-22T14:26:16.211Z,78.04
2023-01-22T14:28:48.322Z,78.98
2023-01-22T14:31:21.084Z,79.11
2023-01-22T14:33:53.370Z,79.71
2023-01-22T14:36:26.223Z,78.52
2023-01-22T14:39:02.586Z,79.16
2023-01-22T14:41:35.149Z,78.41
2023-01-22T14:44:08.008Z,77.78
2023-01-22T14:46:41.740Z,77.00
2023-01-22T14:49:13.532Z,77.99
2023-01-22T14:51:45.739Z,78.96
2023-01-22T14:54:20.453Z,79.21
2023-01-22T14:56:52.498Z,79.90
2023-01-22T14:59:31.789Z,77.83
2023-01-22T15:02:06.407Z,79.01
2023-01-22T15:04:38.321Z,79.21
2023-01-22T15:07:10.687Z,79.09
2023-01-22T15:09:45.521Z,80.94
2023-01-22T15:12:17.771Z,80.02
2023-01-22T15:14:49.764Z,80.05
2023-01-22T15:17:22.030Z,80.34
2023-01-22T15:19:54.133Z,79.70
2023-01-22T15:22:26.377Z,79.04
2023-01-22T15:25:00.936Z,78.20
2023-01-22T15:27:33.188Z,79.79
2023-01-22T15:30:06.652Z,81.64
2023-01-22T15:32:38.931Z,80.77
2023-01-22T15:35:11.696Z,80.40
2023-01-22T15:37:43.850Z,78.73
2023-01-22T15:40:19.658Z,78.33
2023-01-22T15:42:52.477Z,78.21
2023-01-22T15:45:24.459Z,77.65
2023-01-22T15:47:56.848Z,79.14
2023-01-22T15:50:28.857Z,80.25
2023-01-22T15:53:02.471Z,79.95
2023-01-22T15:55:37.360Z,79.63
2023-01-22T15:58:09.644Z,79.37
2023-01-22T16:00:41.768Z,79.48
2023-01-22T16:03:14.200Z,77.93
2023-01-22T16:05:46.182Z,79.05
2023-01-22T16:08:18.306Z,77.82
2023-01-22T16:10:53.045Z,78.51
2023-01-22T16:13:25.306Z,79.37
2023-01-22T16:16:01.454Z,80.15
2023-01-22T16:18:36.566Z,79.81
2023-01-22T16:21:09.761Z,79.51
2023-01-22T16:23:44.117Z,80.98
2023-01-22T16:26:21.299Z,81.30
2023-01-22T16:28:55.968Z,80.19
2023-01-22T16:31:29.825Z,83.32
2023-01-22T16:34:04.016Z,82.94
2023-01-22T16:36:36.141Z,80.60
2023-01-22T16:39:08.913Z,79.85
2023-01-22T16:41:43.563Z,79.63
2023-01-22T16:44:17.662Z,78.26
2023-01-22T16:46:52.777Z,78.51
2023-01-22T16:49:27.618Z,77.90
2023-01-22T16:52:16.584Z,78.79
2023-01-22T16:54:54.297Z,78.82
2023-01-22T16:57:29.217Z,78.05
2023-01-22T17:00:01.779Z,78.70
2023-01-22T17:02:34.225Z,79.01
2023-01-22T17:05:13.138Z,77.98
2023-01-22T17:07:45.486Z,80.57
2023-01-22T17:10:18.508Z,79.94
2023-01-22T17:12:53.758Z,79.03
2023-01-22T17:15:26.669Z,77.53
2023-01-22T17:17:59.978Z,77.77
2023-01-22T17:20:32.781Z,77.40
2023-01-22T17:23:04.877Z,76.57
2023-01-22T17:25:37.500Z,79.09
2023-01-22T17:28:12.484Z,78.45
2023-01-22T17:30:45.162Z,78.51
2023-01-22T17:33:22.605Z,79.40
2023-01-22T17:36:05.442Z,78.92
2023-01-22T17:38:39.825Z,78.15
2023-01-22T17:41:14.495Z,78.61
2023-01-22T17:43:52.330Z,77.53
2023-01-22T17:46:29.206Z,77.87
2023-01-22T17:49:04.919Z,78.22
2023-01-22T17:51:38.693Z,78.18
2023-01-22T17:54:10.652Z,80.00
2023-01-22T17:56:43.411Z,79.34
2023-01-22T17:59:18.366Z,79.16
2023-01-22T18:01:51.944Z,79.83
2023-01-22T18:04:24.214Z,80.28
2023-01-22T18:06:56.437Z,80.40
2023-01-22T18:09:28.416Z,78.97
2023-01-22T18:12:00.606Z,78.76
2023-01-22T18:14:36.103Z,78.57
2023-01-22T18:17:08.423Z,77.33
2023-01-22T18:19:41.500Z,77.57
2023-01-22T18:22:15.575Z,76.75
2023-01-22T18:24:47.971Z,76.91
2023-01-22T18:27:20.087Z,78.47
2023-01-22T18:29:56.157Z,78.78
2023-01-22T18:32:27.971Z,78.58
2023-01-22T18:34:59.710Z,77.22
2023-01-22T18:37:34.192Z,76.65
2023-01-22T18:40:05.536Z,76.47
2023-01-22T18:42:37.800Z,75.90
2023-01-22T18:45:15.245Z,75.72
2023-01-22T18:47:47.102Z,75.96
2023-01-22T18:50:19.745Z,76.12
2023-01-22T18:52:51.884Z,76.15
2023-01-22T18:55:24.529Z,76.89
2023-01-22T18:58:02.717Z,77.29
2023-01-22T19:00:37.994Z,76.69
2023-01-22T19:03:12.653Z,77.61
2023-01-22T19:05:47.589Z,76.29
2023-01-22T19:08:22.622Z,77.58
2023-01-22T19:10:54.546Z,76.63
2023-01-22T19:13:29.479Z,76.19
2023-01-22T19:16:11.114Z,75.19
2023-01-22T19:18:47.061Z,77.05
2023-01-22T19:21:22.274Z,77.34
2023-01-22T19:23:56.210Z,76.23
2023-01-22T19:26:30.749Z,75.97
2023-01-22T19:29:04.933Z,77.43
2023-01-22T19:31:43.955Z,76.29
2023-01-22T19:34:23.787Z,76.06
2023-01-22T19:36:58.546Z,76.15
2023-01-22T19:39:30.815Z,76.65
2023-01-22T19:42:07.266Z,78.79
2023-01-22T19:44:40.327Z,79.30
2023-01-22T19:47:15.706Z,78.24
2023-01-22T19:49:47.846Z,77.73
2023-01-22T19:52:19.551Z,78.03
2023-01-22T19:54:51.646Z,77.59
2023-01-22T19:57:23.505Z,76.30
2023-01-22T19:59:58.605Z,77.52
2023-01-22T20:02:32.566Z,76.67
2023-01-22T20:05:04.646Z,76.54
2023-01-22T20:07:36.866Z,76.57
2023-01-22T20:10:09.670Z,76.13
2023-01-22T20:12:43.954Z,75.74
2023-01-22T20:15:16.786Z,75.14
2023-01-22T20:17:50.935Z,76.30
2023-01-22T20:20:23.033Z,77.89
2023-01-22T20:22:56.058Z,77.20
2023-01-22T20:25:31.222Z,77.56
2023-01-22T20:28:03.485Z,77.17
2023-01-22T20:30:35.488Z,76.19
2023-01-22T20:33:11.399Z,74.46
2023-01-22T20:35:47.231Z,75.52
2023-01-22T20:38:18.883Z,75.41
2023-01-22T20:40:51.306Z,76.19
2023-01-22T20:43:23.557Z,75.59
2023-01-22T20:46:04.531Z,76.47
2023-01-22T20:48:38.941Z,76.34
2023-01-22T20:51:15.825Z,75.45
2023-01-22T20:53:48.568Z,76.51
2023-01-22T20:56:23.457Z,77.72
2023-01-22T20:58:59.568Z,79.15
2023-01-22T21:01:31.803Z,79.65
2023-01-22T21:04:06.234Z,78.44
2023-01-22T21:06:39.763Z,80.03
2023-01-22T21:09:14.472Z,79.86
2023-01-22T21:11:46.787Z,79.62
2023-01-22T21:14:20.911Z,80.49
2023-01-22T21:16:52.846Z,80.04
2023-01-22T21:19:32.508Z,78.24
2023-01-22T21:22:06.832Z,77.54
2023-01-22T21:24:38.421Z,79.00
2023-01-22T21:27:10.057Z,78.03
2023-01-22T21:29:42.391Z,78.51
2023-01-22T21:32:15.422Z,77.16
2023-01-22T21:34:49.298Z,78.13
2023-01-22T21:37:20.947Z,79.33
2023-01-22T21:39:52.401Z,77.51
2023-01-22T21:42:36.383Z,78.29
2023-01-22T21:45:21.527Z,78.77
2023-01-22T21:47:53.813Z,77.35
2023-01-22T21:50:27.711Z,77.38
2023-01-22T21:52:59.352Z,78.30
2023-01-22T21:55:32.008Z,76.19
2023-01-22T21:58:04.025Z,76.64
2023-01-22T22:00:38.226Z,76.97
2023-01-22T22:03:10.368Z,76.64
2023-01-22T22:05:46.258Z,75.88
2023-01-22T22:08:18.600Z,75.62
2023-01-22T22:10:52.709Z,77.09
2023-01-22T22:13:27.716Z,77.13
2023-01-22T22:16:02.634Z,77.46
2023-01-22T22:18:35.044Z,77.74
2023-01-22T22:21:11.755Z,78.70
2023-01-22T22:23:45.395Z,78.71
2023-01-22T22:26:18.215Z,76.77
2023-01-22T22:28:50.391Z,78.03
2023-01-22T22:31:24.871Z,78.08
2023-01-22T22:33:59.114Z,77.99
2023-01-22T22:36:35.011Z,77.84
2023-01-22T22:39:09.413Z,77.01
2023-01-22T22:41:41.396Z,77.95
2023-01-22T22:44:15.500Z,77.61
2023-01-22T22:46:47.160Z,77.17
2023-01-22T22:49:19.144Z,78.14
2023-01-22T22:51:53.605Z,77.27
2023-01-22T22:54:25.569Z,76.41
2023-01-22T22:56:57.022Z,75.92
2023-01-22T22:59:29.043Z,76.56
2023-01-22T23:02:00.687Z,77.99
2023-01-22T23:04:32.726Z,76.98
2023-01-22T23:07:07.079Z,76.50
2023-01-22T23:09:39.112Z,76.25
2023-01-22T23:12:10.893Z,76.12
2023-01-22T23:14:42.998Z,75.66
2023-01-22T23:17:14.688Z,75.58
2023-01-22T23:19:46.716Z,75.70
2023-01-22T23:22:21.526Z,75.88
2023-01-22T23:24:53.925Z,75.16
2023-01-22T23:27:26.346Z,75.62
2023-01-22T23:29:59.274Z,75.62
2023-01-22T23:32:33.026Z,75.89
2023-01-22T23:35:05.606Z,77.52
2023-01-22T23:37:40.396Z,76.90
2023-01-22T23:40:14.630Z,76.02
2023-01-22T23:42:51.206Z,75.92
2023-01-22T23:45:23.708Z,76.54
2023-01-22T23:47:56.411Z,75.70
2023-01-22T23:50:29.168Z,76.17
2023-01-22T23:53:04.420Z,76.33
2023-01-22T23:55:36.765Z,77.63
2023-01-22T23:58:08.827Z,77.25
